sensor_id;sensor_type;location;lat;lon;timestamp;temperature;humidity
47516;DHT22;33249;51.990;5.840;2022-07-29T00:00:59;17.20;99.90
47516;DHT22;33249;51.990;5.840;2022-07-29T00:03:25;17.10;99.90
47516;DHT22;33249;51.990;5.840;2022-07-29T00:05:51;17.20;99.90
47516;DHT22;33249;51.990;5.840;2022-07-29T00:08:20;17.00;99.90
47516;DHT22;33249;51.990;5.840;2022-07-29T00:10:46;17.10;99.90
47516;DHT22;33249;51.990;5.840;2022-07-29T00:13:15;17.10;99.90
47516;DHT22;33249;51.990;5.840;2022-07-29T00:15:43;17.20;99.90
47516;DHT22;33249;51.990;5.840;2022-07-29T00:18:09;17.00;99.90
47516;DHT22;33249;51.990;5.840;2022-07-29T00:20:41;17.00;99.90
47516;DHT22;33249;51.990;5.840;2022-07-29T00:23:07;16.90;99.90
47516;DHT22;33249;51.990;5.840;2022-07-29T00:25:35;16.90;99.90
47516;DHT22;33249;51.990;5.840;2022-07-29T00:28:03;16.90;99.90
47516;DHT22;33249;51.990;5.840;2022-07-29T00:33:33;16.90;99.90
47516;DHT22;33249;51.990;5.840;2022-07-29T00:35:59;17.00;99.90
47516;DHT22;33249;51.990;5.840;2022-07-29T00:38:25;16.80;99.90
47516;DHT22;33249;51.990;5.840;2022-07-29T00:40:53;16.80;99.90
47516;DHT22;33249;51.990;5.840;2022-07-29T00:43:21;16.80;99.90
47516;DHT22;33249;51.990;5.840;2022-07-29T00:45:50;16.80;99.90
47516;DHT22;33249;51.990;5.840;2022-07-29T00:48:16;16.90;99.90
47516;DHT22;33249;51.990;5.840;2022-07-29T00:50:42;16.80;99.90
47516;DHT22;33249;51.990;5.840;2022-07-29T00:53:11;16.80;99.90
47516;DHT22;33249;51.990;5.840;2022-07-29T00:55:37;16.70;99.90
47516;DHT22;33249;51.990;5.840;2022-07-29T00:58:03;16.70;99.90
47516;DHT22;33249;51.990;5.840;2022-07-29T01:00:29;16.70;99.90
47516;DHT22;33249;51.990;5.840;2022-07-29T01:02:55;16.60;99.90
47516;DHT22;33249;51.990;5.840;2022-07-29T01:05:27;16.70;99.90
47516;DHT22;33249;51.990;5.840;2022-07-29T01:07:53;16.70;99.90
47516;DHT22;33249;51.990;5.840;2022-07-29T01:10:20;16.70;99.90
47516;DHT22;33249;51.990;5.840;2022-07-29T01:12:47;16.70;99.90
47516;DHT22;33249;51.990;5.840;2022-07-29T01:15:20;16.60;99.90
47516;DHT22;33249;51.990;5.840;2022-07-29T01:17:59;16.60;99.90
47516;DHT22;33249;51.990;5.840;2022-07-29T01:23:13;16.60;99.90
47516;DHT22;33249;51.990;5.840;2022-07-29T01:25:54;16.70;99.90
47516;DHT22;33249;51.990;5.840;2022-07-29T01:31:01;16.60;99.90
47516;DHT22;33249;51.990;5.840;2022-07-29T01:33:31;16.70;99.90
47516;DHT22;33249;51.990;5.840;2022-07-29T01:36:45;16.70;99.90
47516;DHT22;33249;51.990;5.840;2022-07-29T01:39:14;16.70;99.90
47516;DHT22;33249;51.990;5.840;2022-07-29T01:44:31;16.50;99.90
47516;DHT22;33249;51.990;5.840;2022-07-29T01:46:59;16.50;99.90
47516;DHT22;33249;51.990;5.840;2022-07-29T01:49:29;16.50;99.90
47516;DHT22;33249;51.990;5.840;2022-07-29T01:51:57;16.40;99.90
47516;DHT22;33249;51.990;5.840;2022-07-29T01:54:26;16.50;99.90
47516;DHT22;33249;51.990;5.840;2022-07-29T01:56:55;16.40;99.90
47516;DHT22;33249;51.990;5.840;2022-07-29T01:59:22;16.50;99.90
47516;DHT22;33249;51.990;5.840;2022-07-29T02:01:49;16.40;99.90
47516;DHT22;33249;51.990;5.840;2022-07-29T02:04:22;16.40;99.90
47516;DHT22;33249;51.990;5.840;2022-07-29T02:06:49;16.40;99.90
47516;DHT22;33249;51.990;5.840;2022-07-29T02:09:16;16.30;99.90
47516;DHT22;33249;51.990;5.840;2022-07-29T02:11:47;16.30;99.90
47516;DHT22;33249;51.990;5.840;2022-07-29T02:14:14;16.30;99.90
47516;DHT22;33249;51.990;5.840;2022-07-29T02:16:44;16.30;99.90
47516;DHT22;33249;51.990;5.840;2022-07-29T02:19:13;16.30;99.90
47516;DHT22;33249;51.990;5.840;2022-07-29T02:21:42;16.30;99.90
47516;DHT22;33249;51.990;5.840;2022-07-29T02:24:09;16.40;99.90
47516;DHT22;33249;51.990;5.840;2022-07-29T02:26:40;16.40;99.90
47516;DHT22;33249;51.990;5.840;2022-07-29T02:29:07;16.30;99.90
47516;DHT22;33249;51.990;5.840;2022-07-29T02:31:39;16.40;99.90
47516;DHT22;33249;51.990;5.840;2022-07-29T02:34:10;16.20;99.90
47516;DHT22;33249;51.990;5.840;2022-07-29T02:36:39;16.30;99.90
47516;DHT22;33249;51.990;5.840;2022-07-29T02:39:06;16.20;99.90
47516;DHT22;33249;51.990;5.840;2022-07-29T02:41:35;16.20;99.90
47516;DHT22;33249;51.990;5.840;2022-07-29T02:44:10;16.20;99.90
47516;DHT22;33249;51.990;5.840;2022-07-29T02:46:36;16.20;99.90
47516;DHT22;33249;51.990;5.840;2022-07-29T02:49:18;16.10;99.90
47516;DHT22;33249;51.990;5.840;2022-07-29T02:51:53;16.20;99.90
47516;DHT22;33249;51.990;5.840;2022-07-29T02:54:31;16.10;99.90
47516;DHT22;33249;51.990;5.840;2022-07-29T02:57:03;16.00;99.90
47516;DHT22;33249;51.990;5.840;2022-07-29T02:59:30;16.10;99.90
47516;DHT22;33249;51.990;5.840;2022-07-29T03:01:59;15.90;99.90
47516;DHT22;33249;51.990;5.840;2022-07-29T03:04:26;15.90;99.90
47516;DHT22;33249;51.990;5.840;2022-07-29T03:06:54;15.80;99.90
47516;DHT22;33249;51.990;5.840;2022-07-29T03:09:20;15.70;99.90
47516;DHT22;33249;51.990;5.840;2022-07-29T03:11:47;15.50;99.90
47516;DHT22;33249;51.990;5.840;2022-07-29T03:14:13;15.50;99.90
47516;DHT22;33249;51.990;5.840;2022-07-29T03:16:41;15.40;99.90
47516;DHT22;33249;51.990;5.840;2022-07-29T03:19:13;15.50;99.90
47516;DHT22;33249;51.990;5.840;2022-07-29T03:21:39;15.40;99.90
47516;DHT22;33249;51.990;5.840;2022-07-29T03:24:05;15.50;99.90
47516;DHT22;33249;51.990;5.840;2022-07-29T03:26:31;15.30;99.90
47516;DHT22;33249;51.990;5.840;2022-07-29T03:28:59;15.20;99.90
47516;DHT22;33249;51.990;5.840;2022-07-29T03:31:27;15.20;99.90
47516;DHT22;33249;51.990;5.840;2022-07-29T03:33:53;15.20;99.90
47516;DHT22;33249;51.990;5.840;2022-07-29T03:36:22;15.10;99.90
47516;DHT22;33249;51.990;5.840;2022-07-29T03:38:51;15.10;99.90
47516;DHT22;33249;51.990;5.840;2022-07-29T03:41:18;15.00;99.90
47516;DHT22;33249;51.990;5.840;2022-07-29T03:43:48;14.70;99.90
47516;DHT22;33249;51.990;5.840;2022-07-29T03:46:15;14.70;99.90
47516;DHT22;33249;51.990;5.840;2022-07-29T03:48:46;14.50;99.90
47516;DHT22;33249;51.990;5.840;2022-07-29T03:51:14;14.70;99.90
47516;DHT22;33249;51.990;5.840;2022-07-29T03:53:40;14.70;99.90
47516;DHT22;33249;51.990;5.840;2022-07-29T03:56:06;14.70;99.90
47516;DHT22;33249;51.990;5.840;2022-07-29T03:58:35;14.70;99.90
47516;DHT22;33249;51.990;5.840;2022-07-29T04:01:02;14.80;99.90
47516;DHT22;33249;51.990;5.840;2022-07-29T04:03:36;14.80;99.90
47516;DHT22;33249;51.990;5.840;2022-07-29T04:06:06;14.70;99.90
47516;DHT22;33249;51.990;5.840;2022-07-29T04:08:32;14.80;99.90
47516;DHT22;33249;51.990;5.840;2022-07-29T04:11:01;14.70;99.90
47516;DHT22;33249;51.990;5.840;2022-07-29T04:13:31;14.70;99.90
47516;DHT22;33249;51.990;5.840;2022-07-29T04:15:58;14.70;99.90
47516;DHT22;33249;51.990;5.840;2022-07-29T04:18:26;14.70;99.90
47516;DHT22;33249;51.990;5.840;2022-07-29T04:20:52;14.80;99.90
47516;DHT22;33249;51.990;5.840;2022-07-29T04:23:19;14.80;99.90
47516;DHT22;33249;51.990;5.840;2022-07-29T04:25:47;14.80;99.90
47516;DHT22;33249;51.990;5.840;2022-07-29T04:28:14;14.70;99.90
47516;DHT22;33249;51.990;5.840;2022-07-29T04:30:46;14.50;99.90
47516;DHT22;33249;51.990;5.840;2022-07-29T04:33:17;14.70;99.90
47516;DHT22;33249;51.990;5.840;2022-07-29T04:35:46;14.50;99.90
47516;DHT22;33249;51.990;5.840;2022-07-29T04:38:12;14.60;99.90
47516;DHT22;33249;51.990;5.840;2022-07-29T04:40:38;14.60;99.90
47516;DHT22;33249;51.990;5.840;2022-07-29T04:43:06;14.80;99.90
47516;DHT22;33249;51.990;5.840;2022-07-29T04:45:35;14.90;99.90
47516;DHT22;33249;51.990;5.840;2022-07-29T04:48:04;15.00;99.90
47516;DHT22;33249;51.990;5.840;2022-07-29T04:50:37;14.90;99.90
47516;DHT22;33249;51.990;5.840;2022-07-29T04:53:06;14.70;99.90
47516;DHT22;33249;51.990;5.840;2022-07-29T04:55:33;14.60;99.90
47516;DHT22;33249;51.990;5.840;2022-07-29T04:58:04;14.50;99.90
47516;DHT22;33249;51.990;5.840;2022-07-29T05:00:33;14.50;99.90
47516;DHT22;33249;51.990;5.840;2022-07-29T05:03:02;14.60;99.90
47516;DHT22;33249;51.990;5.840;2022-07-29T05:05:28;14.50;99.90
47516;DHT22;33249;51.990;5.840;2022-07-29T05:07:59;14.80;99.90
47516;DHT22;33249;51.990;5.840;2022-07-29T05:10:28;14.80;99.90
47516;DHT22;33249;51.990;5.840;2022-07-29T05:12:56;14.70;99.90
47516;DHT22;33249;51.990;5.840;2022-07-29T05:15:25;14.70;99.90
47516;DHT22;33249;51.990;5.840;2022-07-29T05:17:51;14.70;99.90
47516;DHT22;33249;51.990;5.840;2022-07-29T05:20:17;14.70;99.90
47516;DHT22;33249;51.990;5.840;2022-07-29T05:22:44;14.70;99.90
47516;DHT22;33249;51.990;5.840;2022-07-29T05:25:15;14.80;99.90
47516;DHT22;33249;51.990;5.840;2022-07-29T05:27:50;14.80;99.90
47516;DHT22;33249;51.990;5.840;2022-07-29T05:30:16;14.70;99.90
47516;DHT22;33249;51.990;5.840;2022-07-29T05:32:45;14.80;99.90
47516;DHT22;33249;51.990;5.840;2022-07-29T05:35:14;14.90;99.90
47516;DHT22;33249;51.990;5.840;2022-07-29T05:37:40;14.90;99.90
47516;DHT22;33249;51.990;5.840;2022-07-29T05:40:09;14.80;99.90
47516;DHT22;33249;51.990;5.840;2022-07-29T05:42:41;14.80;99.90
47516;DHT22;33249;51.990;5.840;2022-07-29T05:45:07;15.00;99.90
47516;DHT22;33249;51.990;5.840;2022-07-29T05:47:36;15.00;99.90
47516;DHT22;33249;51.990;5.840;2022-07-29T05:50:05;14.90;99.90
47516;DHT22;33249;51.990;5.840;2022-07-29T05:52:32;14.90;99.90
47516;DHT22;33249;51.990;5.840;2022-07-29T05:55:11;15.10;99.90
47516;DHT22;33249;51.990;5.840;2022-07-29T05:57:40;15.10;99.90
47516;DHT22;33249;51.990;5.840;2022-07-29T06:00:17;15.10;99.90
47516;DHT22;33249;51.990;5.840;2022-07-29T06:02:47;15.20;99.90
47516;DHT22;33249;51.990;5.840;2022-07-29T06:05:24;15.20;99.90
47516;DHT22;33249;51.990;5.840;2022-07-29T06:07:50;15.10;99.90
47516;DHT22;33249;51.990;5.840;2022-07-29T06:10:21;15.10;99.90
47516;DHT22;33249;51.990;5.840;2022-07-29T06:12:53;15.20;99.90
47516;DHT22;33249;51.990;5.840;2022-07-29T06:15:34;15.30;99.90
47516;DHT22;33249;51.990;5.840;2022-07-29T06:18:20;15.50;99.90
47516;DHT22;33249;51.990;5.840;2022-07-29T06:20:56;15.40;99.90
47516;DHT22;33249;51.990;5.840;2022-07-29T06:23:22;15.30;99.90
47516;DHT22;33249;51.990;5.840;2022-07-29T06:28:54;15.70;99.90
47516;DHT22;33249;51.990;5.840;2022-07-29T06:31:26;15.60;99.90
47516;DHT22;33249;51.990;5.840;2022-07-29T06:37:07;15.90;99.90
47516;DHT22;33249;51.990;5.840;2022-07-29T06:39:37;15.90;99.90
47516;DHT22;33249;51.990;5.840;2022-07-29T06:42:06;16.00;99.90
47516;DHT22;33249;51.990;5.840;2022-07-29T06:44:34;16.10;99.90
47516;DHT22;33249;51.990;5.840;2022-07-29T06:47:05;16.10;99.90
47516;DHT22;33249;51.990;5.840;2022-07-29T06:49:31;16.10;99.90
47516;DHT22;33249;51.990;5.840;2022-07-29T06:51:57;16.20;99.90
47516;DHT22;33249;51.990;5.840;2022-07-29T06:54:23;16.30;99.90
47516;DHT22;33249;51.990;5.840;2022-07-29T06:56:52;16.60;99.90
47516;DHT22;33249;51.990;5.840;2022-07-29T06:59:21;16.70;99.90
47516;DHT22;33249;51.990;5.840;2022-07-29T07:02:01;16.80;99.90
47516;DHT22;33249;51.990;5.840;2022-07-29T07:04:30;16.90;99.90
47516;DHT22;33249;51.990;5.840;2022-07-29T07:07:03;16.90;99.90
47516;DHT22;33249;51.990;5.840;2022-07-29T07:09:32;16.80;99.90
47516;DHT22;33249;51.990;5.840;2022-07-29T07:12:09;17.00;99.90
47516;DHT22;33249;51.990;5.840;2022-07-29T07:14:50;17.10;99.90
47516;DHT22;33249;51.990;5.840;2022-07-29T07:17:31;17.30;99.90
47516;DHT22;33249;51.990;5.840;2022-07-29T07:20:16;17.30;99.90
47516;DHT22;33249;51.990;5.840;2022-07-29T07:22:49;17.50;99.90
47516;DHT22;33249;51.990;5.840;2022-07-29T07:25:24;17.60;99.90
47516;DHT22;33249;51.990;5.840;2022-07-29T07:28:03;17.70;99.90
47516;DHT22;33249;51.990;5.840;2022-07-29T07:30:41;17.70;99.90
47516;DHT22;33249;51.990;5.840;2022-07-29T07:33:16;17.80;99.90
47516;DHT22;33249;51.990;5.840;2022-07-29T07:35:50;17.70;99.90
47516;DHT22;33249;51.990;5.840;2022-07-29T07:38:46;17.80;99.90
47516;DHT22;33249;51.990;5.840;2022-07-29T07:41:31;17.80;99.90
47516;DHT22;33249;51.990;5.840;2022-07-29T07:44:03;17.90;99.90
47516;DHT22;33249;51.990;5.840;2022-07-29T07:46:58;17.60;99.90
47516;DHT22;33249;51.990;5.840;2022-07-29T07:49:31;17.60;99.90
47516;DHT22;33249;51.990;5.840;2022-07-29T07:52:13;17.70;99.90
47516;DHT22;33249;51.990;5.840;2022-07-29T07:54:46;17.60;99.90
47516;DHT22;33249;51.990;5.840;2022-07-29T07:57:33;17.60;99.90
47516;DHT22;33249;51.990;5.840;2022-07-29T08:00:20;17.70;99.90
47516;DHT22;33249;51.990;5.840;2022-07-29T08:06:30;17.80;99.90
47516;DHT22;33249;51.990;5.840;2022-07-29T08:09:00;17.80;99.90
47516;DHT22;33249;51.990;5.840;2022-07-29T08:11:55;17.90;99.90
47516;DHT22;33249;51.990;5.840;2022-07-29T08:14:41;17.90;99.90
47516;DHT22;33249;51.990;5.840;2022-07-29T08:17:42;17.80;99.90
47516;DHT22;33249;51.990;5.840;2022-07-29T08:20:16;17.70;99.90
47516;DHT22;33249;51.990;5.840;2022-07-29T08:23:22;17.80;99.90
47516;DHT22;33249;51.990;5.840;2022-07-29T08:25:44;17.80;99.90
47516;DHT22;33249;51.990;5.840;2022-07-29T08:34:09;18.00;99.90
47516;DHT22;33249;51.990;5.840;2022-07-29T08:36:56;18.10;99.90
47516;DHT22;33249;51.990;5.840;2022-07-29T08:42:26;18.20;99.90
47516;DHT22;33249;51.990;5.840;2022-07-29T08:45:15;18.40;99.90
47516;DHT22;33249;51.990;5.840;2022-07-29T08:47:57;18.30;99.90
47516;DHT22;33249;51.990;5.840;2022-07-29T08:54:22;18.30;99.90
47516;DHT22;33249;51.990;5.840;2022-07-29T08:56:57;18.30;99.90
47516;DHT22;33249;51.990;5.840;2022-07-29T08:59:35;18.30;99.90
47516;DHT22;33249;51.990;5.840;2022-07-29T09:02:23;18.10;99.90
47516;DHT22;33249;51.990;5.840;2022-07-29T09:05:16;18.20;99.90
47516;DHT22;33249;51.990;5.840;2022-07-29T09:07:56;18.30;99.90
47516;DHT22;33249;51.990;5.840;2022-07-29T09:13:50;18.30;99.90
47516;DHT22;33249;51.990;5.840;2022-07-29T09:16:22;18.30;99.90
47516;DHT22;33249;51.990;5.840;2022-07-29T09:22:27;18.30;99.90
47516;DHT22;33249;51.990;5.840;2022-07-29T09:28:35;18.30;99.90
47516;DHT22;33249;51.990;5.840;2022-07-29T09:31:47;18.40;99.90
47516;DHT22;33249;51.990;5.840;2022-07-29T09:34:24;18.30;99.90
47516;DHT22;33249;51.990;5.840;2022-07-29T09:36:58;18.30;99.90
47516;DHT22;33249;51.990;5.840;2022-07-29T09:39:33;18.30;99.90
47516;DHT22;33249;51.990;5.840;2022-07-29T09:42:11;18.30;99.90
47516;DHT22;33249;51.990;5.840;2022-07-29T09:44:44;18.20;99.90
47516;DHT22;33249;51.990;5.840;2022-07-29T09:47:12;18.20;99.90
47516;DHT22;33249;51.990;5.840;2022-07-29T09:49:59;18.40;99.90
47516;DHT22;33249;51.990;5.840;2022-07-29T09:52:26;18.50;99.90
47516;DHT22;33249;51.990;5.840;2022-07-29T09:55:08;18.50;99.90
47516;DHT22;33249;51.990;5.840;2022-07-29T09:57:53;18.50;99.90
47516;DHT22;33249;51.990;5.840;2022-07-29T10:00:22;18.80;99.90
47516;DHT22;33249;51.990;5.840;2022-07-29T10:02:59;18.90;99.90
47516;DHT22;33249;51.990;5.840;2022-07-29T10:05:43;19.20;99.90
47516;DHT22;33249;51.990;5.840;2022-07-29T10:08:25;19.70;99.90
47516;DHT22;33249;51.990;5.840;2022-07-29T10:11:18;19.70;99.90
47516;DHT22;33249;51.990;5.840;2022-07-29T10:14:01;20.00;99.90
47516;DHT22;33249;51.990;5.840;2022-07-29T10:16:32;20.20;99.90
47516;DHT22;33249;51.990;5.840;2022-07-29T10:19:17;20.60;99.90
47516;DHT22;33249;51.990;5.840;2022-07-29T10:22:10;21.00;99.90
47516;DHT22;33249;51.990;5.840;2022-07-29T10:24:45;21.10;99.90
47516;DHT22;33249;51.990;5.840;2022-07-29T10:27:47;21.50;99.90
47516;DHT22;33249;51.990;5.840;2022-07-29T10:30:36;21.70;99.90
47516;DHT22;33249;51.990;5.840;2022-07-29T10:44:45;21.20;99.90
47516;DHT22;33249;51.990;5.840;2022-07-29T10:47:23;21.60;99.90
47516;DHT22;33249;51.990;5.840;2022-07-29T10:52:58;22.20;99.90
47516;DHT22;33249;51.990;5.840;2022-07-29T11:01:35;22.80;99.90
47516;DHT22;33249;51.990;5.840;2022-07-29T11:04:07;22.70;99.90
47516;DHT22;33249;51.990;5.840;2022-07-29T11:09:24;22.40;99.90
47516;DHT22;33249;51.990;5.840;2022-07-29T11:22:39;22.90;99.70
47516;DHT22;33249;51.990;5.840;2022-07-29T11:32:44;23.30;99.10
47516;DHT22;33249;51.990;5.840;2022-07-29T11:41:34;23.70;97.40
47516;DHT22;33249;51.990;5.840;2022-07-29T11:44:17;23.70;98.20
47516;DHT22;33249;51.990;5.840;2022-07-29T11:50:09;23.30;97.80
47516;DHT22;33249;51.990;5.840;2022-07-29T11:53:24;23.20;98.50
47516;DHT22;33249;51.990;5.840;2022-07-29T12:14:34;24.60;96.70
47516;DHT22;33249;51.990;5.840;2022-07-29T12:17:51;24.70;96.60
47516;DHT22;33249;51.990;5.840;2022-07-29T12:30:18;24.70;97.60
47516;DHT22;33249;51.990;5.840;2022-07-29T12:33:42;25.40;96.50
47516;DHT22;33249;51.990;5.840;2022-07-29T12:40:49;25.70;95.60
47516;DHT22;33249;51.990;5.840;2022-07-29T12:53:39;25.30;95.40
47516;DHT22;33249;51.990;5.840;2022-07-29T13:10:38;25.60;95.60
47516;DHT22;33249;51.990;5.840;2022-07-29T13:13:32;25.60;94.60
47516;DHT22;33249;51.990;5.840;2022-07-29T13:20:23;25.20;95.50
47516;DHT22;33249;51.990;5.840;2022-07-29T13:23:35;25.10;96.90
47516;DHT22;33249;51.990;5.840;2022-07-29T13:26:19;24.80;95.90
47516;DHT22;33249;51.990;5.840;2022-07-29T13:53:55;25.00;94.20
47516;DHT22;33249;51.990;5.840;2022-07-29T13:56:44;24.50;94.40
47516;DHT22;33249;51.990;5.840;2022-07-29T13:59:56;24.70;96.70
47516;DHT22;33249;51.990;5.840;2022-07-29T14:06:13;24.80;95.40
47516;DHT22;33249;51.990;5.840;2022-07-29T14:09:01;24.70;95.10
47516;DHT22;33249;51.990;5.840;2022-07-29T14:11:57;24.90;95.70
47516;DHT22;33249;51.990;5.840;2022-07-29T14:17:46;24.90;95.60
47516;DHT22;33249;51.990;5.840;2022-07-29T14:20:49;24.90;95.10
47516;DHT22;33249;51.990;5.840;2022-07-29T14:23:33;24.50;96.10
47516;DHT22;33249;51.990;5.840;2022-07-29T14:26:34;24.10;96.80
47516;DHT22;33249;51.990;5.840;2022-07-29T14:32:36;24.00;95.80
47516;DHT22;33249;51.990;5.840;2022-07-29T14:35:07;24.20;94.60
47516;DHT22;33249;51.990;5.840;2022-07-29T15:16:15;24.00;96.90
47516;DHT22;33249;51.990;5.840;2022-07-29T15:19:11;23.90;97.30
47516;DHT22;33249;51.990;5.840;2022-07-29T15:21:53;23.90;97.10
47516;DHT22;33249;51.990;5.840;2022-07-29T15:25:14;23.80;96.20
47516;DHT22;33249;51.990;5.840;2022-07-29T15:27:50;23.90;97.00
47516;DHT22;33249;51.990;5.840;2022-07-29T15:30:27;23.90;97.40
47516;DHT22;33249;51.990;5.840;2022-07-29T15:33:02;24.00;97.90
47516;DHT22;33249;51.990;5.840;2022-07-29T15:35:39;23.90;98.30
47516;DHT22;33249;51.990;5.840;2022-07-29T15:38:27;23.80;97.90
47516;DHT22;33249;51.990;5.840;2022-07-29T15:45:01;23.80;98.40
47516;DHT22;33249;51.990;5.840;2022-07-29T15:50:56;23.60;99.20
47516;DHT22;33249;51.990;5.840;2022-07-29T15:53:32;23.50;98.80
47516;DHT22;33249;51.990;5.840;2022-07-29T15:56:15;23.50;99.00
47516;DHT22;33249;51.990;5.840;2022-07-29T15:59:25;23.40;99.10
47516;DHT22;33249;51.990;5.840;2022-07-29T16:02:11;23.40;98.70
47516;DHT22;33249;51.990;5.840;2022-07-29T16:15:29;23.20;99.60
47516;DHT22;33249;51.990;5.840;2022-07-29T16:18:00;23.10;99.00
47516;DHT22;33249;51.990;5.840;2022-07-29T16:20:44;23.10;99.90
47516;DHT22;33249;51.990;5.840;2022-07-29T16:23:21;23.10;99.90
47516;DHT22;33249;51.990;5.840;2022-07-29T16:26:24;23.10;99.90
47516;DHT22;33249;51.990;5.840;2022-07-29T16:29:20;23.00;99.20
47516;DHT22;33249;51.990;5.840;2022-07-29T16:31:56;23.10;99.90
47516;DHT22;33249;51.990;5.840;2022-07-29T16:34:31;23.00;99.90
47516;DHT22;33249;51.990;5.840;2022-07-29T16:37:20;23.00;99.70
47516;DHT22;33249;51.990;5.840;2022-07-29T16:39:55;23.00;99.50
47516;DHT22;33249;51.990;5.840;2022-07-29T16:42:31;22.90;99.90
47516;DHT22;33249;51.990;5.840;2022-07-29T16:45:15;22.90;99.50
47516;DHT22;33249;51.990;5.840;2022-07-29T16:47:54;22.90;99.50
47516;DHT22;33249;51.990;5.840;2022-07-29T16:50:47;22.80;99.90
47516;DHT22;33249;51.990;5.840;2022-07-29T16:53:18;22.80;99.90
47516;DHT22;33249;51.990;5.840;2022-07-29T16:56:01;22.80;99.90
47516;DHT22;33249;51.990;5.840;2022-07-29T16:58:36;22.60;99.90
47516;DHT22;33249;51.990;5.840;2022-07-29T17:01:11;22.50;99.90
47516;DHT22;33249;51.990;5.840;2022-07-29T17:03:43;22.40;99.90
47516;DHT22;33249;51.990;5.840;2022-07-29T17:45:45;23.10;99.90
47516;DHT22;33249;51.990;5.840;2022-07-29T17:55:38;23.20;99.90
47516;DHT22;33249;51.990;5.840;2022-07-29T17:58:42;23.20;99.90
47516;DHT22;33249;51.990;5.840;2022-07-29T18:12:27;23.00;98.50
47516;DHT22;33249;51.990;5.840;2022-07-29T18:15:59;23.00;98.60
47516;DHT22;33249;51.990;5.840;2022-07-29T18:26:39;22.70;98.40
47516;DHT22;33249;51.990;5.840;2022-07-29T18:41:00;22.30;99.20
47516;DHT22;33249;51.990;5.840;2022-07-29T18:47:12;22.10;99.90
47516;DHT22;33249;51.990;5.840;2022-07-29T18:50:40;22.20;99.60
47516;DHT22;33249;51.990;5.840;2022-07-29T19:14:34;21.50;99.90
47516;DHT22;33249;51.990;5.840;2022-07-29T19:20:51;21.30;99.90
47516;DHT22;33249;51.990;5.840;2022-07-29T19:23:33;21.20;99.90
47516;DHT22;33249;51.990;5.840;2022-07-29T19:26:25;21.20;99.90
47516;DHT22;33249;51.990;5.840;2022-07-29T19:29:41;21.10;99.90
47516;DHT22;33249;51.990;5.840;2022-07-29T20:09:49;20.20;99.90
47516;DHT22;33249;51.990;5.840;2022-07-29T20:20:41;20.30;99.90
47516;DHT22;33249;51.990;5.840;2022-07-29T20:27:59;20.20;99.90
47516;DHT22;33249;51.990;5.840;2022-07-29T20:36:05;19.80;99.90
47516;DHT22;33249;51.990;5.840;2022-07-29T20:47:22;19.60;99.90
47516;DHT22;33249;51.990;5.840;2022-07-29T21:06:04;19.30;99.90
47516;DHT22;33249;51.990;5.840;2022-07-29T21:13:00;19.00;99.90
47516;DHT22;33249;51.990;5.840;2022-07-29T21:16:19;18.80;99.90
47516;DHT22;33249;51.990;5.840;2022-07-29T21:48:22;18.20;99.90
47516;DHT22;33249;51.990;5.840;2022-07-29T21:51:18;18.10;99.90
47516;DHT22;33249;51.990;5.840;2022-07-29T21:53:51;18.00;99.90
47516;DHT22;33249;51.990;5.840;2022-07-29T21:56:19;17.90;99.90
47516;DHT22;33249;51.990;5.840;2022-07-29T21:58:47;18.00;99.90
47516;DHT22;33249;51.990;5.840;2022-07-29T22:01:25;18.00;99.90
47516;DHT22;33249;51.990;5.840;2022-07-29T22:03:57;17.80;99.90
47516;DHT22;33249;51.990;5.840;2022-07-29T22:06:28;17.70;99.90
47516;DHT22;33249;51.990;5.840;2022-07-29T22:08:59;17.80;99.90
47516;DHT22;33249;51.990;5.840;2022-07-29T22:11:25;17.70;99.90
47516;DHT22;33249;51.990;5.840;2022-07-29T22:13:51;17.80;99.90
47516;DHT22;33249;51.990;5.840;2022-07-29T22:16:17;17.80;99.90
47516;DHT22;33249;51.990;5.840;2022-07-29T22:18:46;17.80;99.90
47516;DHT22;33249;51.990;5.840;2022-07-29T22:21:13;17.80;99.90
47516;DHT22;33249;51.990;5.840;2022-07-29T22:23:40;17.70;99.90
47516;DHT22;33249;51.990;5.840;2022-07-29T22:26:11;17.60;99.90
47516;DHT22;33249;51.990;5.840;2022-07-29T22:28:43;17.50;99.90
47516;DHT22;33249;51.990;5.840;2022-07-29T22:31:12;17.60;99.90
47516;DHT22;33249;51.990;5.840;2022-07-29T22:33:38;17.60;99.90
47516;DHT22;33249;51.990;5.840;2022-07-29T22:36:07;17.50;99.90
47516;DHT22;33249;51.990;5.840;2022-07-29T22:38:36;17.40;99.90
47516;DHT22;33249;51.990;5.840;2022-07-29T22:41:05;17.30;99.90
47516;DHT22;33249;51.990;5.840;2022-07-29T22:43:37;17.30;99.90
47516;DHT22;33249;51.990;5.840;2022-07-29T22:46:03;17.30;99.90
47516;DHT22;33249;51.990;5.840;2022-07-29T22:48:35;17.30;99.90
47516;DHT22;33249;51.990;5.840;2022-07-29T22:51:10;17.20;99.90
47516;DHT22;33249;51.990;5.840;2022-07-29T22:53:41;17.20;99.90
47516;DHT22;33249;51.990;5.840;2022-07-29T22:56:09;17.30;99.90
47516;DHT22;33249;51.990;5.840;2022-07-29T22:58:44;17.30;99.90
47516;DHT22;33249;51.990;5.840;2022-07-29T23:01:15;17.30;99.90
47516;DHT22;33249;51.990;5.840;2022-07-29T23:03:44;17.40;99.90
47516;DHT22;33249;51.990;5.840;2022-07-29T23:06:10;17.30;99.90
47516;DHT22;33249;51.990;5.840;2022-07-29T23:08:36;17.30;99.90
47516;DHT22;33249;51.990;5.840;2022-07-29T23:11:05;17.30;99.90
47516;DHT22;33249;51.990;5.840;2022-07-29T23:13:34;17.20;99.90
47516;DHT22;33249;51.990;5.840;2022-07-29T23:16:07;17.20;99.90
47516;DHT22;33249;51.990;5.840;2022-07-29T23:18:40;17.10;99.90
47516;DHT22;33249;51.990;5.840;2022-07-29T23:21:11;17.00;99.90
47516;DHT22;33249;51.990;5.840;2022-07-29T23:23:43;17.00;99.90
47516;DHT22;33249;51.990;5.840;2022-07-29T23:26:10;17.00;99.90
47516;DHT22;33249;51.990;5.840;2022-07-29T23:28:43;16.90;99.90
47516;DHT22;33249;51.990;5.840;2022-07-29T23:31:11;17.00;99.90
47516;DHT22;33249;51.990;5.840;2022-07-29T23:33:38;16.90;99.90
47516;DHT22;33249;51.990;5.840;2022-07-29T23:36:04;16.90;99.90
47516;DHT22;33249;51.990;5.840;2022-07-29T23:38:30;16.80;99.90
47516;DHT22;33249;51.990;5.840;2022-07-29T23:40:56;16.70;99.90
47516;DHT22;33249;51.990;5.840;2022-07-29T23:43:25;16.70;99.90
47516;DHT22;33249;51.990;5.840;2022-07-29T23:46:02;16.60;99.90
47516;DHT22;33249;51.990;5.840;2022-07-29T23:48:31;16.50;99.90
47516;DHT22;33249;51.990;5.840;2022-07-29T23:50:58;16.40;99.90
47516;DHT22;33249;51.990;5.840;2022-07-29T23:53:26;16.50;99.90
47516;DHT22;33249;51.990;5.840;2022-07-29T23:56:00;16.50;99.90
47516;DHT22;33249;51.990;5.840;2022-07-29T23:58:26;16.40;99.90
